Time;durP1;ratioP1;P1;durP2;ratioP2;P2;SDS_P1;SDS_P2;PMS_P1;PMS_P2;Temp;Humidity;BMP_temperature;BMP_pressure;BME280_temperature;BME280_humidity;BME280_pressure;Samples;Min_cycle;Max_cycle;Signal;HPM_P1;HPM_P2
2023/09/25 00:01:04;;;;;;;2.95;2.58;;;13.20;99.90;;;;;;5035478;28;20045;-80
2023/09/25 00:03:31;;;;;;;3.42;2.55;;;13.10;99.90;;;;;;5018204;28;20478;-81
2023/09/25 00:05:57;;;;;;;2.88;2.58;;;13.10;99.90;;;;;;5035413;28;20045;-79
2023/09/25 00:08:22;;;;;;;3.47;2.70;;;13.00;99.90;;;;;;5035825;28;20077;-81
2023/09/25 00:10:48;;;;;;;5.40;2.33;;;13.00;99.90;;;;;;5035367;28;20056;-80
2023/09/25 00:13:14;;;;;;;3.45;2.22;;;13.00;99.90;;;;;;5035422;28;20124;-81
2023/09/25 00:15:44;;;;;;;4.63;2.05;;;13.00;99.90;;;;;;5035157;28;20041;-81
2023/09/25 00:18:11;;;;;;;4.15;2.58;;;13.00;99.90;;;;;;5034085;28;20137;-79
2023/09/25 00:20:37;;;;;;;4.60;2.35;;;13.00;99.90;;;;;;5035289;28;20049;-78
2023/09/25 00:23:02;;;;;;;3.10;2.78;;;13.10;99.90;;;;;;5034109;28;20489;-82
2023/09/25 00:25:28;;;;;;;3.13;2.22;;;13.20;99.90;;;;;;5034946;28;20045;-80
2023/09/25 00:27:54;;;;;;;3.83;2.70;;;13.20;99.90;;;;;;5035032;28;20049;-79
2023/09/25 00:30:20;;;;;;;2.60;2.10;;;13.30;99.90;;;;;;5034011;28;20076;-81
2023/09/25 00:32:46;;;;;;;2.80;2.35;;;13.40;99.90;;;;;;5033784;28;20057;-81
2023/09/25 00:35:11;;;;;;;2.92;2.25;;;13.50;99.90;;;;;;5034747;28;20045;-78
2023/09/25 00:37:38;;;;;;;3.25;2.20;;;13.60;99.90;;;;;;5034449;28;20192;-81
2023/09/25 00:40:18;;;;;;;3.80;2.90;;;13.60;99.90;;;;;;5034697;28;20054;-79
2023/09/25 00:42:53;;;;;;;2.55;2.20;;;13.70;99.90;;;;;;5034831;28;20049;-82
2023/09/25 00:45:19;;;;;;;2.85;2.65;;;13.70;99.90;;;;;;5035227;28;20139;-80
2023/09/25 00:47:45;;;;;;;3.83;2.40;;;13.80;99.90;;;;;;5034924;28;20041;-79
2023/09/25 00:50:12;;;;;;;4.47;2.72;;;13.80;99.90;;;;;;5034588;28;20099;-81
2023/09/25 00:52:41;;;;;;;3.65;2.35;;;13.80;99.90;;;;;;5034637;28;20053;-81
2023/09/25 00:55:08;;;;;;;2.55;2.30;;;13.80;99.90;;;;;;5034640;28;20057;-81
2023/09/25 00:57:40;;;;;;;2.88;2.50;;;13.80;99.90;;;;;;5035159;28;20096;-81
2023/09/25 01:00:11;;;;;;;2.35;2.15;;;13.80;99.90;;;;;;5035057;28;20148;-81
2023/09/25 01:02:37;;;;;;;4.40;2.38;;;13.80;99.90;;;;;;5034973;28;20049;-81
2023/09/25 01:05:06;;;;;;;3.35;2.28;;;13.80;99.90;;;;;;5034202;28;20049;-81
2023/09/25 01:07:32;;;;;;;3.53;2.25;;;13.80;99.90;;;;;;5034792;28;20049;-80
2023/09/25 01:10:07;;;;;;;3.55;2.30;;;13.80;99.90;;;;;;5034395;28;20366;-81
2023/09/25 01:12:34;;;;;;;2.78;2.55;;;13.80;99.90;;;;;;5034592;28;20056;-82
2023/09/25 01:15:01;;;;;;;5.53;2.80;;;13.70;99.90;;;;;;5034311;28;20491;-80
2023/09/25 01:17:27;;;;;;;3.75;2.35;;;13.70;99.90;;;;;;5034161;28;20065;-81
2023/09/25 01:19:53;;;;;;;2.88;2.55;;;13.70;99.90;;;;;;5035239;28;20056;-81
2023/09/25 01:22:19;;;;;;;3.03;2.72;;;13.70;99.90;;;;;;5034068;28;20041;-81
2023/09/25 01:24:44;;;;;;;2.90;2.17;;;13.60;99.90;;;;;;5034005;28;20045;-81
2023/09/25 01:27:10;;;;;;;2.95;2.25;;;13.60;99.90;;;;;;5032715;28;20045;-81
2023/09/25 01:29:35;;;;;;;4.25;3.85;;;13.60;99.90;;;;;;5033952;28;20049;-81
2023/09/25 01:32:01;;;;;;;2.38;2.03;;;13.60;99.90;;;;;;5033903;28;20081;-81
2023/09/25 01:34:27;;;;;;;3.35;2.33;;;13.60;99.90;;;;;;5033657;28;20050;-79
2023/09/25 01:36:53;;;;;;;2.97;2.20;;;13.50;99.90;;;;;;5034428;28;20050;-82
2023/09/25 01:39:19;;;;;;;3.70;2.80;;;13.50;99.90;;;;;;5034113;28;20486;-81
2023/09/25 01:41:44;;;;;;;2.72;2.25;;;13.50;99.90;;;;;;5034182;28;20051;-81
2023/09/25 01:44:10;;;;;;;2.53;2.20;;;13.50;99.90;;;;;;5033734;28;20485;-82
2023/09/25 01:46:36;;;;;;;3.53;2.53;;;13.50;99.90;;;;;;5033175;28;20110;-80
2023/09/25 01:49:01;;;;;;;3.67;2.50;;;13.50;99.90;;;;;;5033626;28;20103;-81
2023/09/25 01:51:27;;;;;;;3.40;2.50;;;13.40;99.90;;;;;;5033784;28;20049;-80
2023/09/25 01:53:53;;;;;;;3.38;2.58;;;12.00;99.90;;;;;;5032061;28;20482;-80
2023/09/25 01:56:18;;;;;;;2.85;2.33;;;13.40;99.90;;;;;;5033451;28;20427;-81
2023/09/25 01:58:44;;;;;;;2.95;2.25;;;13.40;99.90;;;;;;5033105;28;20059;-80
2023/09/25 02:01:10;;;;;;;3.30;2.70;;;13.40;99.90;;;;;;5032234;28;20045;-81
2023/09/25 02:03:36;;;;;;;4.13;3.25;;;13.30;99.90;;;;;;5032091;28;20448;-81
2023/09/25 02:06:03;;;;;;;3.80;2.80;;;13.30;99.90;;;;;;5032799;28;20044;-80
2023/09/25 02:08:29;;;;;;;3.20;2.58;;;13.30;99.90;;;;;;5031811;28;20054;-79
2023/09/25 02:10:55;;;;;;;3.10;2.55;;;13.30;99.90;;;;;;5033650;28;20129;-81
2023/09/25 02:13:21;;;;;;;3.25;2.60;;;13.30;99.90;;;;;;5033078;28;20045;-81
2023/09/25 02:15:47;;;;;;;2.90;2.33;;;13.20;99.90;;;;;;5032538;28;20106;-81
2023/09/25 02:18:13;;;;;;;4.28;3.15;;;13.20;99.90;;;;;;5032793;28;20081;-81
2023/09/25 02:20:39;;;;;;;2.72;2.53;;;13.20;99.90;;;;;;5033116;28;20048;-79
2023/09/25 02:23:05;;;;;;;2.65;2.33;;;13.20;99.90;;;;;;5033237;28;20053;-81
2023/09/25 02:25:31;;;;;;;2.95;2.63;;;13.20;99.90;;;;;;5032185;28;20143;-79
2023/09/25 02:27:57;;;;;;;3.08;2.78;;;13.20;99.90;;;;;;5033262;28;20053;-80
2023/09/25 02:30:22;;;;;;;3.83;3.10;;;13.20;99.90;;;;;;5032690;28;20045;-81
2023/09/25 02:32:48;;;;;;;3.25;2.30;;;13.10;99.90;;;;;;5032649;28;20041;-79
2023/09/25 02:35:14;;;;;;;4.43;3.13;;;13.10;99.90;;;;;;5032471;28;20053;-80
2023/09/25 02:37:40;;;;;;;2.67;2.47;;;13.10;99.90;;;;;;5032983;28;20049;-81
2023/09/25 02:40:08;;;;;;;4.07;2.63;;;13.10;99.90;;;;;;5031544;28;20127;-81
2023/09/25 02:42:34;;;;;;;3.33;2.65;;;13.10;99.90;;;;;;5032526;28;20524;-81
2023/09/25 02:45:00;;;;;;;5.05;2.92;;;13.00;99.90;;;;;;5032941;28;20045;-81
2023/09/25 02:47:25;;;;;;;3.17;2.88;;;13.00;99.90;;;;;;5031598;28;20095;-83
2023/09/25 02:49:51;;;;;;;5.43;3.08;;;13.00;99.90;;;;;;5032827;28;20041;-79
2023/09/25 02:52:17;;;;;;;5.18;2.65;;;13.00;99.90;;;;;;5032625;28;20045;-80
2023/09/25 02:54:42;;;;;;;3.65;2.72;;;13.00;99.90;;;;;;5031658;28;20080;-81
2023/09/25 02:57:08;;;;;;;3.13;2.72;;;13.00;99.90;;;;;;5032668;28;20052;-80
2023/09/25 02:59:34;;;;;;;3.47;2.97;;;13.00;99.90;;;;;;5032461;28;20127;-79
2023/09/25 03:02:02;;;;;;;3.25;2.72;;;12.90;99.90;;;;;;5032534;28;20124;-80
2023/09/25 03:04:28;;;;;;;4.45;2.75;;;12.90;99.90;;;;;;5031707;28;20046;-81
2023/09/25 03:06:53;;;;;;;5.35;2.75;;;12.90;99.90;;;;;;5032392;28;20069;-81
2023/09/25 03:09:19;;;;;;;5.18;3.15;;;12.80;99.90;;;;;;5032399;28;20052;-80
2023/09/25 03:11:44;;;;;;;3.00;2.70;;;12.90;99.90;;;;;;5032524;28;20092;-80
2023/09/25 03:14:10;;;;;;;3.55;3.22;;;12.90;99.90;;;;;;5031645;28;20103;-80
2023/09/25 03:16:36;;;;;;;3.28;2.85;;;12.90;99.90;;;;;;5032344;28;20060;-82
2023/09/25 03:19:02;;;;;;;4.38;2.95;;;12.90;99.90;;;;;;5031504;28;20053;-81
2023/09/25 03:21:29;;;;;;;5.72;3.30;;;12.80;99.90;;;;;;5032223;28;20519;-82
2023/09/25 03:23:54;;;;;;;7.18;3.08;;;12.80;99.90;;;;;;5032107;28;20089;-80
2023/09/25 03:26:20;;;;;;;7.20;2.92;;;12.80;99.90;;;;;;5032095;28;20139;-81
2023/09/25 03:28:46;;;;;;;3.03;2.55;;;12.90;99.90;;;;;;5034603;28;20099;-82
2023/09/25 03:31:12;;;;;;;4.50;3.00;;;12.80;99.90;;;;;;5036087;28;20049;-79
2023/09/25 03:33:39;;;;;;;3.72;3.08;;;12.80;99.90;;;;;;5036404;28;20107;-81
2023/09/25 03:36:05;;;;;;;4.10;2.85;;;12.80;99.90;;;;;;5036154;28;20050;-80
2023/09/25 03:38:31;;;;;;;3.50;2.92;;;12.80;99.90;;;;;;5035851;28;20057;-81
2023/09/25 03:40:57;;;;;;;5.18;2.85;;;12.70;99.90;;;;;;5036325;28;20179;-80
2023/09/25 03:43:23;;;;;;;3.03;2.70;;;12.80;99.90;;;;;;5034876;28;20065;-81
2023/09/25 03:45:49;;;;;;;3.15;2.72;;;12.80;99.90;;;;;;5036207;28;20049;-81
2023/09/25 03:48:14;;;;;;;4.15;3.00;;;12.80;99.90;;;;;;5035728;28;20052;-81
2023/09/25 03:50:40;;;;;;;4.18;3.25;;;12.80;99.90;;;;;;5035700;28;20091;-80
2023/09/25 03:53:06;;;;;;;4.63;2.50;;;12.80;99.90;;;;;;5036150;28;20084;-80
2023/09/25 03:55:32;;;;;;;4.03;3.55;;;12.80;99.90;;;;;;5035988;28;20093;-78
2023/09/25 03:57:58;;;;;;;4.72;3.45;;;12.80;99.90;;;;;;5035690;28;20054;-80
2023/09/25 04:00:26;;;;;;;3.92;3.00;;;12.80;99.90;;;;;;5034651;28;20077;-80
2023/09/25 04:02:52;;;;;;;3.40;2.85;;;12.80;99.90;;;;;;5036004;28;20053;-79
2023/09/25 04:05:18;;;;;;;4.78;2.95;;;12.80;99.90;;;;;;5035427;28;20179;-81
2023/09/25 04:07:45;;;;;;;3.15;2.95;;;12.70;99.90;;;;;;5035399;28;20132;-80
2023/09/25 04:10:11;;;;;;;3.90;3.05;;;12.80;99.90;;;;;;5035369;28;20137;-81
2023/09/25 04:12:38;;;;;;;6.03;2.95;;;12.80;99.90;;;;;;5035254;28;20060;-80
2023/09/25 04:15:10;;;;;;;3.38;2.90;;;12.80;99.90;;;;;;5035249;28;20049;-78
2023/09/25 04:17:36;;;;;;;5.82;3.20;;;12.80;99.90;;;;;;5035300;28;20052;-81
2023/09/25 04:20:07;;;;;;;4.10;2.92;;;12.80;99.90;;;;;;5034847;28;20537;-81
2023/09/25 04:22:37;;;;;;;5.07;3.20;;;12.80;99.90;;;;;;5035117;28;20482;-80
2023/09/25 04:25:08;;;;;;;3.95;2.60;;;12.80;99.90;;;;;;5035550;28;20389;-81
2023/09/25 04:27:35;;;;;;;3.08;2.83;;;12.80;99.90;;;;;;5034356;28;20055;-82
2023/09/25 04:30:02;;;;;;;4.40;3.10;;;12.80;99.90;;;;;;5034968;28;20045;-80
2023/09/25 04:32:28;;;;;;;3.60;3.30;;;12.80;99.90;;;;;;5034940;28;20092;-81
2023/09/25 04:34:54;;;;;;;4.40;3.20;;;12.70;99.90;;;;;;5034936;28;20045;-81
2023/09/25 04:37:20;;;;;;;4.97;3.33;;;12.60;99.90;;;;;;5035559;28;20061;-80
2023/09/25 04:39:46;;;;;;;5.97;3.35;;;12.60;99.90;;;;;;5033637;28;20049;-82
2023/09/25 04:42:12;;;;;;;4.97;3.13;;;12.50;99.90;;;;;;5033909;28;20139;-81
2023/09/25 04:44:38;;;;;;;5.97;3.67;;;12.60;99.90;;;;;;5033545;28;20060;-80
2023/09/25 04:47:04;;;;;;;7.90;3.17;;;12.60;99.90;;;;;;5034666;28;20563;-82
2023/09/25 04:49:30;;;;;;;4.68;2.95;;;12.70;99.90;;;;;;5034995;28;20080;-82
2023/09/25 04:51:56;;;;;;;3.40;3.08;;;12.70;99.90;;;;;;5034650;28;20128;-82
2023/09/25 04:54:22;;;;;;;8.40;3.30;;;12.60;99.90;;;;;;5034790;28;20162;-80
2023/09/25 04:56:48;;;;;;;3.33;2.85;;;12.60;99.90;;;;;;5034540;28;20045;-81
2023/09/25 04:59:13;;;;;;;4.88;3.10;;;12.50;99.90;;;;;;5034890;28;20133;-81
2023/09/25 05:01:39;;;;;;;4.60;3.22;;;12.50;99.90;;;;;;5034866;28;20046;-80
2023/09/25 05:04:05;;;;;;;3.15;2.83;;;12.50;99.90;;;;;;5034028;28;20041;-81
2023/09/25 05:06:31;;;;;;;2.80;2.60;;;12.50;99.90;;;;;;5034208;28;20486;-81
2023/09/25 05:08:57;;;;;;;3.00;2.70;;;12.60;99.90;;;;;;5034134;28;20061;-80
2023/09/25 05:11:23;;;;;;;3.95;3.17;;;12.60;99.90;;;;;;5034219;28;20058;-81
2023/09/25 05:13:49;;;;;;;3.97;2.28;;;12.50;99.90;;;;;;5033600;28;20046;-81
2023/09/25 05:16:15;;;;;;;6.50;3.25;;;12.50;99.90;;;;;;5034137;28;20081;-81
2023/09/25 05:18:42;;;;;;;3.03;2.72;;;12.50;99.90;;;;;;5034502;28;20060;-82
2023/09/25 05:21:08;;;;;;;4.63;3.60;;;12.50;99.90;;;;;;5032807;28;20499;-82
2023/09/25 05:23:34;;;;;;;5.18;3.00;;;12.50;99.90;;;;;;5033928;28;20084;-82
2023/09/25 05:25:59;;;;;;;5.20;3.67;;;12.50;99.90;;;;;;5032765;28;20085;-81
2023/09/25 05:28:25;;;;;;;3.67;3.28;;;12.50;99.90;;;;;;5033766;28;20084;-81
2023/09/25 05:30:54;;;;;;;4.53;3.10;;;12.50;99.90;;;;;;5033359;28;20053;-82
2023/09/25 05:33:20;;;;;;;4.88;3.35;;;12.50;99.90;;;;;;5033694;28;20089;-81
2023/09/25 05:35:47;;;;;;;4.82;3.22;;;12.40;99.90;;;;;;5032765;28;20085;-82
2023/09/25 05:38:13;;;;;;;3.72;2.97;;;12.40;99.90;;;;;;5033801;28;20045;-80
2023/09/25 05:40:39;;;;;;;4.75;3.60;;;12.40;99.90;;;;;;5032442;28;20516;-82
2023/09/25 05:43:05;;;;;;;3.85;3.40;;;12.40;99.90;;;;;;5033392;28;20045;-79
2023/09/25 05:45:31;;;;;;;3.55;3.05;;;12.40;99.90;;;;;;5033176;28;20046;-81
2023/09/25 05:47:57;;;;;;;3.35;2.95;;;12.40;99.90;;;;;;5033168;28;20047;-80
2023/09/25 05:50:25;;;;;;;3.30;2.95;;;12.40;99.90;;;;;;5033135;28;20124;-81
2023/09/25 05:52:51;;;;;;;4.30;3.80;;;12.50;99.90;;;;;;5033643;28;20053;-80
2023/09/25 05:55:17;;;;;;;4.07;3.50;;;12.40;99.90;;;;;;5031938;28;20466;-80
2023/09/25 05:57:43;;;;;;;3.45;2.90;;;12.40;99.90;;;;;;5033078;28;20045;-80
2023/09/25 06:00:16;;;;;;;3.72;2.92;;;12.40;99.90;;;;;;5033096;28;20052;-81
2023/09/25 06:02:42;;;;;;;;;;;12.50;99.90;;;;;;5033223;28;20455;-78
2023/09/25 06:05:09;;;;;;;3.10;2.83;;;12.40;99.90;;;;;;5032477;28;19921;-81
2023/09/25 06:07:35;;;;;;;3.88;2.80;;;12.50;99.90;;;;;;5031873;28;20073;-80
2023/09/25 06:10:04;;;;;;;3.70;3.33;;;12.60;99.90;;;;;;5033191;28;20444;-81
2023/09/25 06:12:31;;;;;;;3.30;3.00;;;12.60;99.90;;;;;;5032371;28;20512;-79
2023/09/25 06:14:57;;;;;;;6.97;3.33;;;12.70;99.90;;;;;;5033146;28;20057;-80
2023/09/25 06:17:26;;;;;;;3.75;2.95;;;12.70;99.90;;;;;;5033029;28;20179;-81
2023/09/25 06:19:53;;;;;;;5.43;3.50;;;12.70;99.90;;;;;;5032684;28;20073;-81
2023/09/25 06:22:21;;;;;;;4.85;2.90;;;13.60;99.90;;;;;;5032623;28;20128;-81
2023/09/25 06:24:47;;;;;;;4.35;2.85;;;12.70;99.90;;;;;;5033063;28;20092;-79
2023/09/25 06:27:13;;;;;;;3.70;2.65;;;12.80;99.90;;;;;;5032487;28;20045;-80
2023/09/25 06:29:38;;;;;;;3.42;3.13;;;12.80;99.90;;;;;;5032605;28;20128;-81
2023/09/25 06:32:04;;;;;;;2.90;2.63;;;12.90;99.90;;;;;;5031572;28;20069;-80
2023/09/25 06:34:30;;;;;;;4.43;3.05;;;12.90;99.90;;;;;;5031896;28;20050;-81
2023/09/25 06:36:56;;;;;;;2.95;2.65;;;13.00;99.90;;;;;;5032134;28;20050;-80
2023/09/25 06:39:23;;;;;;;3.08;2.55;;;13.10;99.90;;;;;;5032658;28;20465;-80
2023/09/25 06:41:49;;;;;;;3.88;3.30;;;13.10;99.90;;;;;;5032632;28;20061;-80
2023/09/25 06:44:14;;;;;;;6.05;3.22;;;13.20;99.90;;;;;;5032579;28;20049;-79
2023/09/25 06:46:42;;;;;;;5.00;2.85;;;13.20;99.90;;;;;;5031439;28;20132;-80
2023/09/25 06:49:08;;;;;;;3.15;2.88;;;13.30;99.90;;;;;;5032489;28;20045;-81
2023/09/25 06:51:34;;;;;;;3.35;3.08;;;13.30;99.90;;;;;;5032851;28;20465;-81
2023/09/25 06:53:59;;;;;;;4.25;2.85;;;13.40;99.90;;;;;;5033014;28;20099;-78
2023/09/25 06:56:25;;;;;;;3.13;2.40;;;13.50;99.90;;;;;;5032360;28;20480;-79
2023/09/25 06:58:53;;;;;;;3.75;2.90;;;13.50;99.90;;;;;;5031519;28;20507;-78
2023/09/25 07:01:21;;;;;;;5.78;3.13;;;13.70;99.90;;;;;;5032358;28;20132;-81
2023/09/25 07:03:47;;;;;;;3.17;2.80;;;13.70;99.90;;;;;;5030985;28;20132;-81
2023/09/25 07:06:12;;;;;;;4.18;3.00;;;13.80;99.90;;;;;;5032340;28;20041;-81
2023/09/25 07:08:38;;;;;;;3.88;2.90;;;13.80;99.90;;;;;;5032454;28;20045;-76
2023/09/25 07:11:04;;;;;;;2.90;2.63;;;13.80;99.90;;;;;;5032996;28;20330;-77
2023/09/25 07:13:31;;;;;;;3.25;2.40;;;13.80;99.90;;;;;;5031609;28;20049;-76
2023/09/25 07:16:08;;;;;;;3.13;2.50;;;13.90;99.90;;;;;;5032552;28;20046;-76
2023/09/25 07:18:34;;;;;;;3.83;2.85;;;13.90;99.90;;;;;;5032589;28;20053;-76
2023/09/25 07:21:00;;;;;;;3.25;2.53;;;14.00;99.90;;;;;;5032350;28;20060;-76
2023/09/25 07:23:27;;;;;;;3.38;2.78;;;14.00;99.90;;;;;;5031779;28;20391;-76
2023/09/25 07:26:04;;;;;;;2.97;2.70;;;14.10;99.90;;;;;;5031647;28;20049;-82
2023/09/25 07:28:30;;;;;;;3.70;2.75;;;14.20;99.90;;;;;;5032317;28;20041;-81
2023/09/25 07:30:56;;;;;;;5.63;2.85;;;14.20;99.90;;;;;;5031679;28;20124;-81
2023/09/25 07:33:22;;;;;;;3.50;2.75;;;14.30;99.90;;;;;;5031726;28;20191;-78
2023/09/25 07:35:48;;;;;;;2.80;2.40;;;14.40;99.90;;;;;;5032042;28;20057;-81
2023/09/25 07:38:14;;;;;;;3.22;2.58;;;14.50;99.90;;;;;;5031992;28;20385;-78
2023/09/25 07:40:39;;;;;;;3.65;2.55;;;14.50;99.90;;;;;;5032387;28;20045;-80
2023/09/25 07:43:06;;;;;;;2.70;2.50;;;14.60;99.90;;;;;;5014745;28;20041;-80
2023/09/25 07:45:32;;;;;;;3.50;3.13;;;14.70;99.90;;;;;;5032171;28;20052;-82
2023/09/25 07:47:59;;;;;;;2.97;2.70;;;14.70;99.90;;;;;;5032025;28;20041;-81
2023/09/25 07:50:25;;;;;;;3.35;2.72;;;14.80;99.90;;;;;;5032406;28;20046;-81
2023/09/25 07:52:54;;;;;;;3.78;3.25;;;14.90;99.90;;;;;;5032235;28;20060;-80
2023/09/25 07:55:21;;;;;;;2.92;2.72;;;15.00;99.90;;;;;;5031951;28;20482;-81
2023/09/25 07:57:47;;;;;;;2.55;2.33;;;15.10;99.90;;;;;;5032013;28;20045;-81
2023/09/25 08:00:25;;;;;;;4.30;2.58;;;15.30;99.90;;;;;;5032287;28;20508;-79
2023/09/25 08:02:52;;;;;;;3.05;2.35;;;15.60;99.90;;;;;;5032016;28;20424;-79
2023/09/25 08:05:22;;;;;;;4.38;2.47;;;16.10;99.90;;;;;;5031977;28;20061;-78
2023/09/25 08:07:52;;;;;;;3.00;2.42;;;16.50;99.90;;;;;;5030708;28;20128;-81
2023/09/25 08:10:18;;;;;;;5.63;2.47;;;16.80;99.90;;;;;;5031261;28;20100;-79
2023/09/25 08:12:44;;;;;;;3.35;2.58;;;17.00;99.90;;;;;;5031577;28;20046;-81
2023/09/25 08:15:10;;;;;;;2.50;2.30;;;17.10;99.90;;;;;;5034890;28;20540;-82
2023/09/25 08:17:38;;;;;;;5.28;2.30;;;17.20;99.90;;;;;;5035422;28;20061;-81
2023/09/25 08:20:16;;;;;;;5.15;2.28;;;17.30;99.90;;;;;;5033791;28;20049;-82
2023/09/25 08:22:43;;;;;;;4.05;2.58;;;17.20;99.90;;;;;;5033875;28;20117;-81
2023/09/25 08:25:09;;;;;;;5.28;3.17;;;17.20;99.90;;;;;;5034807;28;20052;-80
2023/09/25 08:27:41;;;;;;;2.80;2.40;;;17.20;99.90;;;;;;5034776;28;20056;-81
2023/09/25 08:30:08;;;;;;;4.60;2.22;;;17.10;99.90;;;;;;5034123;28;20104;-81
2023/09/25 08:32:34;;;;;;;2.78;2.13;;;17.10;99.90;;;;;;5033620;28;20398;-81
2023/09/25 08:35:00;;;;;;;3.05;2.20;;;17.00;99.90;;;;;;5035013;28;20038;-79
2023/09/25 08:37:26;;;;;;;3.28;1.98;;;17.20;99.90;;;;;;5033933;28;20050;-82
2023/09/25 08:39:52;;;;;;;3.30;2.08;;;17.20;99.90;;;;;;5034659;28;20047;-80
2023/09/25 08:42:21;;;;;;;3.60;2.60;;;17.30;99.90;;;;;;5034680;28;20056;-82
2023/09/25 08:44:50;;;;;;;3.72;2.10;;;17.50;99.90;;;;;;5034368;28;20053;-82
2023/09/25 08:47:20;;;;;;;3.60;2.15;;;17.60;99.90;;;;;;5034323;28;20148;-81
2023/09/25 08:49:49;;;;;;;2.83;2.53;;;17.80;99.90;;;;;;5034926;28;20046;-80
2023/09/25 08:52:16;;;;;;;2.55;2.13;;;18.00;99.90;;;;;;5017400;28;20503;-80
2023/09/25 08:54:42;;;;;;;2.65;2.10;;;18.30;99.90;;;;;;5034571;28;20045;-82
2023/09/25 08:57:09;;;;;;;2.05;1.80;;;18.90;99.90;;;;;;5034634;28;20068;-82
2023/09/25 08:59:36;;;;;;;2.63;1.98;;;19.20;99.90;;;;;;5034821;28;20049;-80
2023/09/25 09:02:04;;;;;;;2.67;2.47;;;19.20;99.70;;;;;;5035152;28;20099;-79
2023/09/25 09:04:30;;;;;;;2.47;1.92;;;19.30;99.90;;;;;;5034602;28;20094;-82
2023/09/25 09:06:55;;;;;;;1.92;1.83;;;19.20;99.90;;;;;;5033082;28;20132;-79
2023/09/25 09:09:22;;;;;;;2.92;2.00;;;19.50;99.90;;;;;;5033280;28;20045;-82
2023/09/25 09:11:51;;;;;;;2.33;1.67;;;20.10;99.90;;;;;;5034546;28;20061;-81
2023/09/25 09:14:36;;;;;;;5.85;2.47;;;20.50;99.10;;;;;;5016646;28;20076;-81
2023/09/25 09:17:06;;;;;;;2.55;2.08;;;20.40;97.30;;;;;;5034437;28;20048;-82
2023/09/25 09:19:35;;;;;;;3.15;2.25;;;20.20;98.60;;;;;;5034575;28;20048;-82
2023/09/25 09:22:06;;;;;;;2.60;2.10;;;19.90;98.90;;;;;;5034346;28;20049;-82
2023/09/25 09:24:33;;;;;;;4.50;1.90;;;19.60;99.30;;;;;;5033613;28;20175;-81
2023/09/25 09:27:01;;;;;;;2.95;2.15;;;19.50;99.30;;;;;;5034023;28;20052;-81
2023/09/25 09:29:26;;;;;;;2.95;1.83;;;19.70;99.20;;;;;;5034088;28;20128;-82
2023/09/25 09:31:54;;;;;;;3.95;2.03;;;20.40;98.80;;;;;;5033823;28;20504;-81
2023/09/25 09:34:23;;;;;;;3.50;1.92;;;21.20;97.90;;;;;;5033830;28;20049;-82
2023/09/25 09:36:51;;;;;;;2.47;2.05;;;21.50;97.20;;;;;;5033272;28;20111;-82
2023/09/25 09:39:21;;;;;;;3.85;2.05;;;21.40;97.10;;;;;;5033609;28;20084;-83
2023/09/25 09:41:51;;;;;;;4.10;1.95;;;21.30;96.90;;;;;;5033439;28;20465;-83
2023/09/25 09:44:18;;;;;;;4.20;1.90;;;21.30;96.80;;;;;;5034106;28;20092;-82
2023/09/25 09:46:45;;;;;;;3.72;2.10;;;21.80;96.90;;;;;;5033654;28;20133;-83
2023/09/25 09:49:15;;;;;;;2.40;2.00;;;22.40;97.00;;;;;;5033735;28;20053;-80
2023/09/25 09:51:43;;;;;;;5.68;2.22;;;23.00;96.00;;;;;;5033356;28;20080;-82
2023/09/25 09:54:12;;;;;;;2.20;1.85;;;22.90;95.60;;;;;;5033632;28;20079;-82
2023/09/25 09:56:39;;;;;;;2.75;1.95;;;22.60;95.30;;;;;;5033981;28;20488;-82
2023/09/25 09:59:05;;;;;;;1.95;1.85;;;22.60;95.30;;;;;;5033509;28;20065;-82
2023/09/25 10:01:36;;;;;;;2.60;1.88;;;22.50;95.00;;;;;;5034170;28;20053;-81
2023/09/25 10:04:05;;;;;;;3.30;1.92;;;22.70;95.20;;;;;;5033914;28;20049;-82
2023/09/25 10:06:35;;;;;;;1.88;1.60;;;22.70;95.00;;;;;;5033417;28;20434;-81
2023/09/25 10:09:07;;;;;;;2.47;2.03;;;22.50;95.00;;;;;;5033384;28;20049;-82
2023/09/25 10:11:32;;;;;;;2.28;1.77;;;22.30;94.50;;;;;;5032861;28;20176;-82
2023/09/25 10:14:03;;;;;;;3.55;2.08;;;22.40;95.20;;;;;;5033523;28;20493;-83
2023/09/25 10:16:30;;;;;;;4.53;1.92;;;22.30;95.30;;;;;;5034184;28;20073;-82
2023/09/25 10:18:56;;;;;;;3.38;2.20;;;22.60;95.50;;;;;;5033852;28;20058;-81
2023/09/25 10:21:22;;;;;;;3.30;2.13;;;23.10;95.10;;;;;;5035418;28;20115;-80
2023/09/25 10:23:49;;;;;;;2.30;1.80;;;23.80;94.80;;;;;;5050548;28;20042;-80
2023/09/25 10:26:20;;;;;;;3.83;2.05;;;23.90;94.30;;;;;;5044478;28;20045;-83
2023/09/25 10:29:12;;;;;;;3.22;1.80;;;23.90;94.10;;;;;;5036091;28;20054;-83
2023/09/25 10:31:38;;;;;;;4.45;2.67;;;23.40;93.50;;;;;;5033254;28;20470;-84
2023/09/25 10:34:08;;;;;;;1.80;1.70;;;22.90;94.30;;;;;;5033095;28;20046;-82
2023/09/25 10:36:40;;;;;;;2.78;1.92;;;22.60;94.00;;;;;;5032135;28;20224;-82
2023/09/25 10:39:09;;;;;;;2.25;1.95;;;22.20;94.50;;;;;;5033003;28;20062;-83
2023/09/25 10:41:38;;;;;;;3.67;2.10;;;21.80;95.10;;;;;;5031822;28;20053;-83
2023/09/25 10:44:04;;;;;;;4.50;2.78;;;21.50;95.80;;;;;;5031704;28;20096;-81
2023/09/25 10:46:30;;;;;;;3.10;2.08;;;21.30;96.00;;;;;;5032690;28;20041;-84
2023/09/25 10:48:57;;;;;;;3.03;2.15;;;21.20;95.90;;;;;;5031639;28;20045;-83
2023/09/25 10:51:23;;;;;;;4.25;2.30;;;21.00;96.10;;;;;;5032743;28;20128;-81
2023/09/25 10:53:48;;;;;;;2.35;2.00;;;20.90;96.20;;;;;;5015218;28;20088;-84
2023/09/25 10:56:15;;;;;;;3.63;2.05;;;20.90;96.20;;;;;;5032480;28;20446;-83
2023/09/25 10:58:41;;;;;;;4.13;2.35;;;20.80;96.60;;;;;;5033027;28;20111;-82
2023/09/25 11:01:07;;;;;;;3.28;2.28;;;20.80;96.70;;;;;;5031596;28;20490;-81
2023/09/25 11:03:35;;;;;;;4.13;1.90;;;20.70;96.80;;;;;;5033076;28;20061;-83
2023/09/25 11:06:02;;;;;;;2.85;2.10;;;20.80;97.10;;;;;;5031552;28;20053;-82
2023/09/25 11:08:27;;;;;;;5.88;1.90;;;20.80;96.70;;;;;;5032956;28;20054;-81
2023/09/25 11:10:55;;;;;;;3.35;2.20;;;20.80;96.90;;;;;;5031930;28;20041;-84
2023/09/25 11:13:21;;;;;;;6.00;2.75;;;20.80;97.20;;;;;;5032509;28;20076;-83
2023/09/25 11:15:47;;;;;;;3.00;2.10;;;20.90;97.10;;;;;;5032757;28;20041;-83
2023/09/25 11:18:13;;;;;;;4.03;2.42;;;20.90;97.10;;;;;;5031837;28;20060;-80
2023/09/25 11:20:41;;;;;;;2.47;2.05;;;21.00;97.00;;;;;;5032414;28;20358;-84
2023/09/25 11:23:09;;;;;;;2.85;1.77;;;21.10;97.00;;;;;;5032749;28;20049;-82
2023/09/25 11:25:41;;;;;;;3.63;2.20;;;21.10;97.30;;;;;;5032200;28;20041;-83
2023/09/25 11:28:07;;;;;;;2.50;1.88;;;21.10;96.30;;;;;;5032600;28;20061;-83
2023/09/25 11:30:34;;;;;;;4.00;2.20;;;21.10;97.10;;;;;;5032299;28;20042;-81
2023/09/25 11:33:05;;;;;;;3.63;2.10;;;21.10;96.90;;;;;;5032193;28;20484;-83
2023/09/25 11:35:34;;;;;;;3.88;2.33;;;21.10;96.80;;;;;;5031710;28;20087;-83
2023/09/25 11:38:15;;;;;;;3.97;2.40;;;21.20;97.10;;;;;;5032209;28;20069;-82
2023/09/25 11:40:41;;;;;;;2.85;2.50;;;21.20;96.50;;;;;;5032355;28;20037;-83
2023/09/25 11:43:07;;;;;;;2.20;1.95;;;21.30;96.50;;;;;;5032322;28;20049;-83
2023/09/25 11:45:33;;;;;;;3.88;1.98;;;21.20;96.20;;;;;;5032418;28;20041;-81
2023/09/25 11:48:01;;;;;;;2.78;2.42;;;21.30;96.40;;;;;;5032397;28;20045;-82
2023/09/25 11:50:26;;;;;;;3.53;2.00;;;21.30;96.40;;;;;;5035983;28;20061;-83
2023/09/25 11:52:52;;;;;;;2.55;2.30;;;21.30;96.50;;;;;;5035678;28;20053;-80
2023/09/25 11:55:19;;;;;;;3.00;2.25;;;21.30;96.50;;;;;;5035434;28;20053;-82
2023/09/25 11:57:48;;;;;;;5.35;2.25;;;21.40;96.60;;;;;;5035759;28;20048;-83
2023/09/25 12:00:16;;;;;;;3.25;2.25;;;21.40;96.70;;;;;;5035951;28;20053;-84
2023/09/25 12:02:46;;;;;;;6.72;2.55;;;21.40;96.30;;;;;;5035673;28;20115;-83
2023/09/25 12:05:16;;;;;;;4.35;2.10;;;21.40;96.10;;;;;;5035803;28;20045;-82
2023/09/25 12:07:43;;;;;;;3.40;2.08;;;21.40;95.90;;;;;;5035440;28;20049;-84
2023/09/25 12:10:12;;;;;;;2.97;2.00;;;21.50;96.30;;;;;;5035334;28;20046;-82
2023/09/25 12:12:39;;;;;;;5.55;2.45;;;21.60;96.40;;;;;;5034863;28;20080;-83
2023/09/25 12:15:07;;;;;;;2.25;1.90;;;21.60;96.50;;;;;;5035293;28;20049;-83
2023/09/25 12:17:34;;;;;;;2.67;1.92;;;21.60;96.80;;;;;;5035706;28;20442;-83
2023/09/25 12:20:11;;;;;;;2.38;2.17;;;21.60;96.90;;;;;;5035558;28;20045;-83
2023/09/25 12:22:40;;;;;;;2.47;2.28;;;21.70;96.70;;;;;;5035144;28;20060;-83
2023/09/25 12:25:13;;;;;;;3.08;2.03;;;21.70;96.60;;;;;;5034750;28;20049;-81
2023/09/25 12:27:39;;;;;;;;;;;21.70;96.30;;;;;;5035737;28;20103;-83
2023/09/25 12:30:07;;;;;;;2.72;1.88;;;21.70;96.80;;;;;;5034557;28;20019;-84
2023/09/25 12:32:34;;;;;;;3.10;2.30;;;21.70;96.70;;;;;;5035232;28;20095;-82
2023/09/25 12:35:00;;;;;;;2.88;2.05;;;21.80;96.30;;;;;;5034275;28;20041;-81
2023/09/25 12:37:25;;;;;;;2.00;1.80;;;21.70;96.80;;;;;;5035173;28;20056;-81
2023/09/25 12:39:51;;;;;;;2.97;2.13;;;21.80;96.50;;;;;;5034713;28;20063;-83
2023/09/25 12:42:19;;;;;;;2.97;2.47;;;21.80;96.50;;;;;;5034704;28;20092;-83
2023/09/25 12:44:45;;;;;;;2.53;2.08;;;21.90;96.70;;;;;;5034615;28;20041;-83
2023/09/25 12:47:10;;;;;;;3.60;1.83;;;21.90;96.80;;;;;;5034568;28;20059;-84